Time;durP1;ratioP1;P1;durP2;ratioP2;P2;SDS_P1;SDS_P2;PMS_P1;PMS_P2;Temp;Humidity;BMP_temperature;BMP_pressure;BME280_temperature;BME280_humidity;BME280_pressure;Samples;Min_cycle;Max_cycle;Signal;HPM_P1;HPM_P2
2023/04/08 00:00:44;;;;;;;0.30;0.30;;;17.60;74.20;;;;;;5032355;28;20033;-67
2023/04/08 00:03:10;;;;;;;0.77;0.20;;;17.60;74.10;;;;;;5030777;28;20443;-67
2023/04/08 00:05:35;;;;;;;0.90;0.45;;;17.50;74.20;;;;;;5031149;28;20014;-67
2023/04/08 00:08:01;;;;;;;1.10;0.40;;;17.60;74.30;;;;;;5030910;28;20108;-67
2023/04/08 00:10:27;;;;;;;1.83;0.43;;;17.60;74.30;;;;;;5034274;28;20036;-67
2023/04/08 00:12:52;;;;;;;0.50;0.20;;;17.60;74.30;;;;;;5035254;28;20053;-67
2023/04/08 00:15:18;;;;;;;1.23;0.50;;;17.50;74.20;;;;;;5035974;28;20030;-67
2023/04/08 00:17:44;;;;;;;0.57;0.30;;;17.60;74.30;;;;;;5036016;28;20026;-67
2023/04/08 00:20:10;;;;;;;0.35;0.20;;;17.60;74.40;;;;;;5036521;28;20026;-67
2023/04/08 00:22:36;;;;;;;0.38;0.30;;;17.60;74.40;;;;;;5036078;28;20514;-67
2023/04/08 00:25:01;;;;;;;1.65;0.38;;;17.50;74.40;;;;;;5036203;28;20029;-67
2023/04/08 00:27:27;;;;;;;1.55;0.50;;;17.50;74.30;;;;;;5035865;28;20030;-67
2023/04/08 00:29:53;;;;;;;0.73;0.40;;;17.50;74.40;;;;;;5035854;28;20044;-67
2023/04/08 00:32:18;;;;;;;0.40;0.40;;;17.50;74.50;;;;;;5035803;28;20036;-67
2023/04/08 00:34:44;;;;;;;7.65;0.40;;;17.60;74.50;;;;;;5035867;28;20025;-67
2023/04/08 00:37:10;;;;;;;0.63;0.40;;;17.50;74.40;;;;;;5035855;28;20022;-67
2023/04/08 00:39:36;;;;;;;0.40;0.28;;;17.50;74.50;;;;;;5035748;28;20057;-67
2023/04/08 00:42:02;;;;;;;0.80;0.43;;;17.50;74.40;;;;;;5018163;28;20040;-67
2023/04/08 00:44:27;;;;;;;0.60;0.25;;;17.50;74.40;;;;;;5035503;28;20014;-67
2023/04/08 00:46:53;;;;;;;1.55;0.30;;;17.50;74.60;;;;;;5035777;28;20029;-67
2023/04/08 00:49:19;;;;;;;0.82;0.30;;;17.50;74.50;;;;;;5035544;28;20104;-67
2023/04/08 00:51:44;;;;;;;1.42;0.50;;;17.50;74.50;;;;;;5034186;28;20030;-67
2023/04/08 00:54:10;;;;;;;2.03;0.40;;;17.50;74.50;;;;;;5035523;28;20038;-67
2023/04/08 00:56:36;;;;;;;0.20;0.20;;;17.50;74.50;;;;;;5035527;28;20064;-67
2023/04/08 00:59:01;;;;;;;0.40;0.20;;;17.50;74.60;;;;;;5034465;28;20076;-67
2023/04/08 01:01:38;;;;;;;0.52;0.25;;;17.50;74.60;;;;;;5017553;28;20104;-68
2023/04/08 01:04:17;;;;;;;1.20;0.25;;;17.50;74.60;;;;;;5035326;28;20031;-67
2023/04/08 01:06:49;;;;;;;0.57;0.30;;;17.50;74.60;;;;;;5018496;28;20029;-67
2023/04/08 01:09:17;;;;;;;1.58;0.50;;;17.50;74.60;;;;;;5034262;28;20561;-67
2023/04/08 01:11:43;;;;;;;1.27;0.30;;;17.50;74.60;;;;;;5034102;28;20033;-67
2023/04/08 01:14:09;;;;;;;0.35;0.30;;;17.50;74.60;;;;;;5033776;28;20029;-67
2023/04/08 01:16:35;;;;;;;1.27;0.40;;;17.50;74.60;;;;;;5017309;28;20083;-67
2023/04/08 01:19:00;;;;;;;0.30;0.28;;;17.50;74.60;;;;;;5017647;28;20048;-67
2023/04/08 01:21:26;;;;;;;1.15;0.40;;;17.50;74.60;;;;;;5033261;28;20515;-67
2023/04/08 01:23:54;;;;;;;1.17;0.28;;;17.50;74.70;;;;;;5017509;28;20139;-67
2023/04/08 01:26:22;;;;;;;1.02;0.38;;;17.50;74.70;;;;;;5033965;28;20033;-68
2023/04/08 01:28:49;;;;;;;3.40;0.40;;;17.50;74.70;;;;;;5017522;28;20104;-67
2023/04/08 01:31:15;;;;;;;1.00;0.35;;;17.50;74.70;;;;;;5017291;28;20512;-68
2023/04/08 01:33:40;;;;;;;3.50;0.30;;;17.50;74.70;;;;;;5017444;28;20083;-67
2023/04/08 01:36:06;;;;;;;0.50;0.32;;;17.50;74.70;;;;;;5033552;28;20029;-67
2023/04/08 01:38:32;;;;;;;0.28;0.22;;;17.50;74.70;;;;;;5033358;28;20025;-67
2023/04/08 01:40:57;;;;;;;0.30;0.30;;;17.50;74.70;;;;;;5033702;28;20032;-67
2023/04/08 01:43:23;;;;;;;2.15;0.30;;;17.50;74.70;;;;;;5033357;28;20022;-67
2023/04/08 01:45:49;;;;;;;1.55;0.30;;;17.50;74.80;;;;;;5016690;28;20048;-67
2023/04/08 01:48:15;;;;;;;0.47;0.40;;;17.40;74.60;;;;;;5034883;28;20514;-68
2023/04/08 01:50:41;;;;;;;0.80;0.20;;;17.40;74.60;;;;;;5033261;28;20029;-67
2023/04/08 01:53:08;;;;;;;0.35;0.30;;;17.50;74.70;;;;;;5016842;28;20045;-67
2023/04/08 01:55:33;;;;;;;1.48;0.38;;;17.40;74.60;;;;;;5034388;28;20025;-67
2023/04/08 01:58:00;;;;;;;1.05;0.30;;;17.40;74.70;;;;;;5016876;28;20365;-68
2023/04/08 02:00:28;;;;;;;2.25;0.40;;;17.40;74.70;;;;;;5032988;28;20396;-67
2023/04/08 02:02:54;;;;;;;0.63;0.30;;;17.50;74.80;;;;;;5033141;28;20017;-67
2023/04/08 02:05:19;;;;;;;0.40;0.30;;;17.40;74.70;;;;;;5033176;28;20029;-68
2023/04/08 02:07:46;;;;;;;1.85;0.32;;;17.40;74.70;;;;;;5032674;28;20076;-67
2023/04/08 02:10:12;;;;;;;0.52;0.20;;;17.40;74.90;;;;;;5034175;28;20029;-67
2023/04/08 02:12:38;;;;;;;2.15;0.30;;;17.40;74.70;;;;;;5034114;28;20518;-67
2023/04/08 02:15:04;;;;;;;0.35;0.30;;;17.40;74.70;;;;;;5032541;28;20108;-68
2023/04/08 02:17:35;;;;;;;0.68;0.40;;;17.40;74.70;;;;;;5032880;28;20022;-68
2023/04/08 02:20:20;;;;;;;0.30;0.30;;;17.50;74.80;;;;;;5032710;28;20037;-68
2023/04/08 02:23:02;;;;;;;0.80;0.20;;;17.40;74.70;;;;;;5032727;28;20484;-67
2023/04/08 02:25:28;;;;;;;8.63;0.40;;;17.40;74.80;;;;;;5017607;28;20036;-67
2023/04/08 02:27:53;;;;;;;1.30;0.30;;;17.40;74.90;;;;;;5016086;28;20021;-67
2023/04/08 02:30:19;;;;;;;0.30;0.30;;;17.40;74.90;;;;;;5016283;28;20037;-67
2023/04/08 02:32:45;;;;;;;1.23;0.30;;;17.40;74.90;;;;;;5015789;28;20025;-68
2023/04/08 02:35:11;;;;;;;0.60;0.40;;;17.40;74.90;;;;;;5031829;28;20026;-68
2023/04/08 02:37:36;;;;;;;0.65;0.20;;;17.40;75.00;;;;;;5032550;28;20013;-68
2023/04/08 02:40:02;;;;;;;1.23;0.20;;;17.40;74.90;;;;;;5033364;28;20434;-68
2023/04/08 02:42:28;;;;;;;0.63;0.22;;;17.40;74.90;;;;;;5033381;28;20017;-67
2023/04/08 02:44:53;;;;;;;0.75;0.32;;;17.40;74.90;;;;;;5033402;28;20470;-67
2023/04/08 02:47:19;;;;;;;0.50;0.40;;;17.40;75.00;;;;;;5033474;28;20087;-68
2023/04/08 02:49:45;;;;;;;0.30;0.30;;;17.40;75.00;;;;;;5033347;28;20080;-68
2023/04/08 02:52:10;;;;;;;0.70;0.40;;;17.40;75.00;;;;;;5033632;28;20372;-68
2023/04/08 02:54:36;;;;;;;0.47;0.30;;;17.40;75.00;;;;;;5032905;28;20077;-67
2023/04/08 02:57:02;;;;;;;2.13;0.30;;;17.40;75.00;;;;;;5033167;28;20104;-68
2023/04/08 02:59:27;;;;;;;1.85;0.50;;;17.40;75.00;;;;;;5032100;28;20035;-68
2023/04/08 03:01:53;;;;;;;0.75;0.38;;;17.40;75.00;;;;;;5033005;28;20433;-67
2023/04/08 03:04:18;;;;;;;0.70;0.40;;;17.40;75.00;;;;;;5033301;28;20017;-68
2023/04/08 03:06:44;;;;;;;0.25;0.25;;;17.30;74.90;;;;;;5032775;28;20029;-67
2023/04/08 03:09:10;;;;;;;1.52;0.68;;;17.30;75.00;;;;;;5033061;28;20040;-67
2023/04/08 03:11:35;;;;;;;0.43;0.30;;;17.30;75.00;;;;;;5032871;28;20029;-67
2023/04/08 03:14:01;;;;;;;4.70;0.43;;;17.40;75.00;;;;;;5032933;28;20122;-67
2023/04/08 03:16:27;;;;;;;1.00;0.30;;;17.40;75.00;;;;;;5032772;28;20156;-67
2023/04/08 03:18:52;;;;;;;0.40;0.32;;;17.30;75.00;;;;;;5032841;28;20025;-67
2023/04/08 03:21:18;;;;;;;0.82;0.30;;;17.30;75.00;;;;;;5032920;28;20079;-67
2023/04/08 03:23:44;;;;;;;1.23;0.50;;;17.30;75.10;;;;;;5033153;28;20033;-67
2023/04/08 03:26:09;;;;;;;0.77;0.32;;;17.30;75.20;;;;;;5032563;28;20017;-68
2023/04/08 03:28:35;;;;;;;0.35;0.30;;;17.30;75.10;;;;;;5032793;28;20030;-68
2023/04/08 03:31:03;;;;;;;1.52;0.40;;;17.30;75.20;;;;;;5031491;28;20018;-67
2023/04/08 03:33:28;;;;;;;0.60;0.28;;;17.30;75.10;;;;;;5032826;28;20382;-67
2023/04/08 03:35:54;;;;;;;0.35;0.20;;;17.30;75.10;;;;;;5032423;28;20030;-67
2023/04/08 03:38:20;;;;;;;0.82;0.40;;;17.30;75.10;;;;;;5031592;28;20021;-67
2023/04/08 03:40:45;;;;;;;1.75;0.40;;;17.30;75.10;;;;;;5031093;28;20057;-67
2023/04/08 03:43:12;;;;;;;0.28;0.20;;;17.30;75.00;;;;;;5032473;28;20022;-67
2023/04/08 03:45:37;;;;;;;0.40;0.40;;;17.30;75.00;;;;;;5030999;28;20037;-67
2023/04/08 03:48:03;;;;;;;0.80;0.35;;;17.30;75.10;;;;;;5031205;28;20048;-67
2023/04/08 03:50:29;;;;;;;2.00;0.50;;;17.30;75.00;;;;;;5032550;28;20030;-67
2023/04/08 03:52:54;;;;;;;1.02;0.35;;;17.30;74.90;;;;;;5030781;28;20102;-67
2023/04/08 03:55:22;;;;;;;1.75;0.43;;;17.30;75.00;;;;;;5032314;28;20053;-67
2023/04/08 03:57:47;;;;;;;0.40;0.35;;;17.30;75.00;;;;;;5031072;28;20027;-67
2023/04/08 04:00:13;;;;;;;3.72;0.30;;;17.30;75.10;;;;;;5032474;28;20391;-67
2023/04/08 04:02:39;;;;;;;0.35;0.30;;;17.30;75.00;;;;;;5032286;28;20079;-67
2023/04/08 04:05:05;;;;;;;0.35;0.30;;;17.30;75.10;;;;;;5032125;28;20391;-67
2023/04/08 04:07:31;;;;;;;1.45;0.35;;;17.20;75.00;;;;;;5032347;28;20431;-67
2023/04/08 04:09:56;;;;;;;0.52;0.40;;;17.20;75.00;;;;;;5032055;28;20034;-67
2023/04/08 04:12:22;;;;;;;0.50;0.30;;;17.20;75.00;;;;;;5032275;28;20038;-67
2023/04/08 04:14:48;;;;;;;0.93;0.40;;;17.20;75.00;;;;;;5031950;28;20548;-67
2023/04/08 04:17:14;;;;;;;0.45;0.30;;;17.20;75.00;;;;;;5032222;28;20110;-67
2023/04/08 04:19:39;;;;;;;0.40;0.40;;;17.20;75.00;;;;;;5031111;28;20017;-67
2023/04/08 04:22:05;;;;;;;1.67;0.30;;;17.20;75.10;;;;;;5031988;28;20083;-67
2023/04/08 04:24:31;;;;;;;0.40;0.40;;;17.20;75.10;;;;;;5030826;28;20400;-67
2023/04/08 04:26:56;;;;;;;3.60;0.40;;;17.20;75.20;;;;;;5031987;28;20029;-67
2023/04/08 04:29:22;;;;;;;1.17;0.20;;;17.20;75.10;;;;;;5032084;28;20034;-67
2023/04/08 04:31:48;;;;;;;1.75;0.50;;;17.20;75.10;;;;;;5030739;28;20025;-67
2023/04/08 04:34:13;;;;;;;0.40;0.40;;;17.20;75.20;;;;;;5032055;28;20439;-67
2023/04/08 04:36:39;;;;;;;0.57;0.45;;;17.20;75.10;;;;;;5032118;28;20045;-67
2023/04/08 04:39:05;;;;;;;0.40;0.30;;;17.20;75.20;;;;;;5031658;28;20388;-67
2023/04/08 04:41:30;;;;;;;0.82;0.50;;;17.20;75.20;;;;;;5031962;28;20017;-67
2023/04/08 04:43:56;;;;;;;1.05;0.30;;;17.20;75.20;;;;;;5031887;28;20033;-67
2023/04/08 04:46:22;;;;;;;0.95;0.50;;;17.20;75.30;;;;;;5032071;28;20034;-67
2023/04/08 04:48:47;;;;;;;0.32;0.20;;;17.20;75.30;;;;;;5031873;28;20388;-67
2023/04/08 04:51:13;;;;;;;0.40;0.40;;;17.20;75.30;;;;;;5031943;28;20144;-67
2023/04/08 04:53:38;;;;;;;1.67;0.35;;;17.20;75.40;;;;;;5031556;28;20046;-67
2023/04/08 04:56:04;;;;;;;1.42;0.30;;;17.20;75.30;;;;;;5031765;28;20491;-67
2023/04/08 04:58:30;;;;;;;0.98;0.60;;;17.20;75.30;;;;;;5035394;28;20018;-67
2023/04/08 05:00:56;;;;;;;0.52;0.40;;;17.20;75.30;;;;;;5035574;28;20028;-67
2023/04/08 05:03:22;;;;;;;0.40;0.28;;;17.20;75.40;;;;;;5035356;28;20067;-67
2023/04/08 05:05:53;;;;;;;0.63;0.35;;;17.20;75.30;;;;;;5035396;28;20021;-67
2023/04/08 05:08:19;;;;;;;0.43;0.40;;;17.20;75.40;;;;;;5030565;28;20515;-67
2023/04/08 05:10:45;;;;;;;0.10;0.10;;;17.20;75.30;;;;;;5014317;28;20550;-67
2023/04/08 05:13:10;;;;;;;0.40;0.40;;;17.20;75.40;;;;;;5016135;28;20018;-67
2023/04/08 05:15:36;;;;;;;1.05;0.40;;;17.10;75.40;;;;;;5035294;28;20029;-67
2023/04/08 05:18:02;;;;;;;0.40;0.40;;;17.10;75.30;;;;;;5035039;28;20499;-67
2023/04/08 05:20:27;;;;;;;0.40;0.30;;;17.20;75.40;;;;;;5035378;28;20026;-67
2023/04/08 05:22:53;;;;;;;0.55;0.40;;;17.20;75.40;;;;;;5034935;28;20022;-67
2023/04/08 05:25:19;;;;;;;0.47;0.40;;;17.20;75.50;;;;;;5033986;28;20156;-67
2023/04/08 05:27:45;;;;;;;0.63;0.40;;;17.10;75.50;;;;;;5034892;28;20029;-67
2023/04/08 05:30:11;;;;;;;0.90;0.35;;;17.10;75.50;;;;;;5035045;28;20029;-67
2023/04/08 05:32:37;;;;;;;0.50;0.50;;;17.10;75.50;;;;;;5034979;28;20097;-67
2023/04/08 05:35:03;;;;;;;0.45;0.45;;;17.10;75.60;;;;;;5034733;28;20400;-67
2023/04/08 05:37:28;;;;;;;1.60;0.65;;;17.10;75.70;;;;;;5034723;28;20063;-67
2023/04/08 05:39:54;;;;;;;1.00;0.40;;;17.10;75.70;;;;;;5034622;28;20148;-67
2023/04/08 05:42:20;;;;;;;0.30;0.30;;;17.10;75.80;;;;;;5034698;28;20017;-67
2023/04/08 05:44:45;;;;;;;0.60;0.43;;;17.10;75.70;;;;;;5034989;28;20033;-67
2023/04/08 05:47:11;;;;;;;0.60;0.50;;;17.10;75.80;;;;;;5034515;28;20071;-67
2023/04/08 05:49:37;;;;;;;0.45;0.40;;;17.10;75.90;;;;;;5034819;28;20029;-67
2023/04/08 05:52:03;;;;;;;0.65;0.30;;;17.10;75.90;;;;;;5033075;28;20028;-67
2023/04/08 05:54:29;;;;;;;1.75;0.40;;;17.10;76.00;;;;;;5034233;28;20072;-67
2023/04/08 05:56:55;;;;;;;0.73;0.50;;;17.10;76.00;;;;;;5033421;28;20060;-67
2023/04/08 05:59:20;;;;;;;0.28;0.28;;;17.10;76.00;;;;;;5034497;28;20383;-67
2023/04/08 06:01:46;;;;;;;0.20;0.20;;;17.10;76.00;;;;;;5036075;28;20022;-67
2023/04/08 06:04:11;;;;;;;1.05;0.50;;;17.10;76.30;;;;;;5038563;28;20022;-67
2023/04/08 06:06:38;;;;;;;0.55;0.40;;;17.10;76.20;;;;;;5044462;28;20404;-67
2023/04/08 06:09:04;;;;;;;0.30;0.20;;;17.10;76.20;;;;;;5052310;28;20021;-67
2023/04/08 06:11:30;;;;;;;0.63;0.40;;;17.10;76.20;;;;;;5046465;28;20070;-68
2023/04/08 06:13:55;;;;;;;1.83;0.47;;;17.10;76.30;;;;;;5032636;28;20052;-67
2023/04/08 06:16:21;;;;;;;0.77;0.50;;;17.10;76.30;;;;;;5032709;28;20025;-68
2023/04/08 06:18:47;;;;;;;3.13;0.70;;;17.10;76.40;;;;;;5032798;28;20483;-67
2023/04/08 06:21:13;;;;;;;0.73;0.40;;;17.10;76.40;;;;;;5044546;28;20488;-67
2023/04/08 06:23:38;;;;;;;0.52;0.40;;;17.10;76.30;;;;;;5051217;28;20182;-67
2023/04/08 06:26:04;;;;;;;2.47;0.60;;;17.10;75.50;;;;;;5052163;28;20016;-67
2023/04/08 06:28:30;;;;;;;0.60;0.52;;;17.10;75.40;;;;;;5052387;28;20019;-68
2023/04/08 06:30:56;;;;;;;2.28;0.57;;;17.10;76.30;;;;;;5052277;28;20479;-68
2023/04/08 06:33:22;;;;;;;1.98;0.90;;;17.10;75.40;;;;;;5051679;28;20399;-67
2023/04/08 06:35:47;;;;;;;0.52;0.43;;;17.10;75.40;;;;;;5051764;28;20021;-68
2023/04/08 06:38:13;;;;;;;1.38;0.65;;;17.00;75.50;;;;;;5036784;28;20104;-67
2023/04/08 06:40:39;;;;;;;1.30;0.70;;;17.00;75.50;;;;;;5032118;28;20395;-68
2023/04/08 06:43:06;;;;;;;1.25;0.68;;;17.00;75.60;;;;;;5039192;28;20024;-67
2023/04/08 06:45:32;;;;;;;1.10;0.65;;;17.00;75.70;;;;;;5050776;28;20074;-67
2023/04/08 06:47:58;;;;;;;0.60;0.60;;;17.10;75.70;;;;;;5051688;28;20020;-68
2023/04/08 06:50:24;;;;;;;1.08;0.50;;;17.00;75.60;;;;;;5051588;28;20563;-67
2023/04/08 06:52:49;;;;;;;1.23;0.50;;;17.00;75.70;;;;;;5051522;28;20041;-67
2023/04/08 06:55:15;;;;;;;1.05;0.60;;;17.00;75.70;;;;;;5050438;28;20025;-68
2023/04/08 06:57:41;;;;;;;1.33;0.55;;;17.00;75.70;;;;;;5051705;28;20099;-67
2023/04/08 07:00:07;;;;;;;1.13;0.57;;;17.00;75.70;;;;;;5051530;28;20021;-67
2023/04/08 07:02:33;;;;;;;0.93;0.70;;;17.00;75.80;;;;;;5051573;28;20024;-67
2023/04/08 07:04:59;;;;;;;3.25;0.65;;;17.00;75.80;;;;;;5037674;28;20090;-67
2023/04/08 07:07:25;;;;;;;2.15;0.50;;;17.00;75.90;;;;;;5031612;28;20511;-67
2023/04/08 07:09:50;;;;;;;2.53;0.65;;;17.00;75.80;;;;;;5031688;28;20021;-67
2023/04/08 07:12:16;;;;;;;0.65;0.40;;;17.00;75.80;;;;;;5045362;28;20498;-67
2023/04/08 07:14:42;;;;;;;1.33;0.82;;;17.00;75.90;;;;;;5051200;28;20099;-67
2023/04/08 07:17:07;;;;;;;0.60;0.40;;;17.00;75.90;;;;;;5049829;28;20086;-67
2023/04/08 07:19:33;;;;;;;0.57;0.45;;;17.00;75.90;;;;;;5049411;28;20020;-67
2023/04/08 07:21:59;;;;;;;2.45;0.40;;;17.00;76.00;;;;;;5051016;28;20450;-67
2023/04/08 07:24:25;;;;;;;0.80;0.60;;;17.00;76.00;;;;;;5051059;28;20315;-67
2023/04/08 07:26:51;;;;;;;1.30;0.80;;;17.00;76.00;;;;;;5051187;28;20113;-67
2023/04/08 07:29:17;;;;;;;0.40;0.40;;;17.00;76.00;;;;;;5049821;28;20088;-68
2023/04/08 07:31:43;;;;;;;0.40;0.40;;;17.00;76.10;;;;;;5049839;28;20036;-67
2023/04/08 07:34:09;;;;;;;1.83;0.47;;;17.00;76.00;;;;;;5049162;28;20021;-67
2023/04/08 07:36:35;;;;;;;0.98;0.35;;;17.00;76.10;;;;;;5051058;28;20035;-67
2023/04/08 07:39:00;;;;;;;1.58;0.43;;;17.00;76.10;;;;;;5050814;28;20502;-67
2023/04/08 07:41:26;;;;;;;0.45;0.43;;;17.00;76.20;;;;;;5050821;28;20056;-68
2023/04/08 07:43:52;;;;;;;0.80;0.45;;;17.00;76.20;;;;;;5050804;28;20024;-67
2023/04/08 07:46:18;;;;;;;0.40;0.40;;;17.00;76.20;;;;;;5050812;28;20028;-67
2023/04/08 07:48:44;;;;;;;1.33;0.57;;;17.00;76.10;;;;;;5049414;28;20483;-67
2023/04/08 07:51:10;;;;;;;0.40;0.30;;;17.00;76.20;;;;;;5049225;28;20033;-67
2023/04/08 07:53:36;;;;;;;1.95;0.43;;;17.00;76.20;;;;;;5050675;28;20044;-67
2023/04/08 07:56:04;;;;;;;1.02;0.40;;;17.00;76.20;;;;;;5049290;28;20021;-67
2023/04/08 07:58:31;;;;;;;1.00;0.50;;;17.00;76.20;;;;;;5049553;28;20443;-67
2023/04/08 08:00:57;;;;;;;1.80;0.50;;;17.00;76.20;;;;;;5050825;28;20032;-67
2023/04/08 08:03:22;;;;;;;0.60;0.40;;;17.00;76.20;;;;;;5050022;28;20078;-67
2023/04/08 08:05:48;;;;;;;0.80;0.45;;;17.00;76.20;;;;;;5029688;28;20021;-67
2023/04/08 08:08:14;;;;;;;1.33;0.30;;;17.00;76.20;;;;;;5030844;28;21333;-67
2023/04/08 08:10:39;;;;;;;0.52;0.40;;;17.00;76.20;;;;;;5029646;28;20030;-67
2023/04/08 08:13:06;;;;;;;0.52;0.40;;;17.00;76.20;;;;;;5050621;28;20025;-67
2023/04/08 08:15:31;;;;;;;0.30;0.30;;;17.00;76.20;;;;;;5049159;28;20017;-67
2023/04/08 08:17:57;;;;;;;0.80;0.57;;;17.00;76.20;;;;;;5050300;28;20021;-67
2023/04/08 08:20:23;;;;;;;2.97;0.57;;;16.90;76.10;;;;;;5050435;28;20375;-67
2023/04/08 08:22:49;;;;;;;2.17;0.50;;;17.00;76.20;;;;;;5048976;28;20064;-67
2023/04/08 08:25:15;;;;;;;0.80;0.50;;;16.90;76.20;;;;;;5050684;28;20487;-67
2023/04/08 08:27:41;;;;;;;0.35;0.28;;;17.00;76.30;;;;;;5049250;28;20072;-67
2023/04/08 08:30:08;;;;;;;1.67;0.55;;;17.00;76.40;;;;;;5050278;28;20450;-67
2023/04/08 08:32:34;;;;;;;0.40;0.35;;;16.90;76.40;;;;;;5052686;28;20032;-67
2023/04/08 08:35:00;;;;;;;0.40;0.40;;;16.90;76.30;;;;;;5053229;28;20017;-67
2023/04/08 08:37:25;;;;;;;2.90;0.50;;;16.90;76.30;;;;;;5054031;28;20399;-67
2023/04/08 08:39:51;;;;;;;0.90;0.43;;;16.90;77.30;;;;;;5054204;28;20120;-68
2023/04/08 08:42:23;;;;;;;0.43;0.43;;;16.90;76.20;;;;;;5054146;28;20096;-67
2023/04/08 08:44:49;;;;;;;0.65;0.65;;;16.90;76.30;;;;;;5052959;28;20394;-67
2023/04/08 08:47:17;;;;;;;0.47;0.35;;;16.90;76.30;;;;;;5052746;28;20111;-67
2023/04/08 08:49:43;;;;;;;2.05;0.40;;;16.90;76.30;;;;;;5031193;28;20083;-67
2023/04/08 08:52:10;;;;;;;6.03;0.50;;;16.90;76.20;;;;;;5034076;28;20500;-67
2023/04/08 08:54:36;;;;;;;2.05;0.40;;;17.00;76.30;;;;;;5034034;28;20037;-67
2023/04/08 08:57:02;;;;;;;1.95;0.30;;;17.00;76.40;;;;;;5033057;28;20021;-67
2023/04/08 08:59:28;;;;;;;2.53;0.57;;;16.90;76.40;;;;;;5032689;28;20043;-67
2023/04/08 09:01:53;;;;;;;0.98;0.60;;;16.90;76.40;;;;;;5032967;28;20017;-67
2023/04/08 09:04:21;;;;;;;0.38;0.38;;;16.90;76.50;;;;;;5032698;28;20403;-67
2023/04/08 09:06:48;;;;;;;0.63;0.40;;;16.90;76.50;;;;;;5032946;28;20047;-67
2023/04/08 09:09:14;;;;;;;0.70;0.40;;;16.90;76.50;;;;;;5033986;28;20017;-67
2023/04/08 09:11:44;;;;;;;1.35;0.45;;;16.90;76.50;;;;;;5042797;28;20731;-67
2023/04/08 09:14:30;;;;;;;1.33;0.80;;;16.90;76.40;;;;;;5052063;28;20050;-67
2023/04/08 09:16:56;;;;;;;0.80;0.32;;;16.90;76.40;;;;;;5052193;28;20502;-68
2023/04/08 09:19:21;;;;;;;2.97;0.60;;;16.90;76.50;;;;;;5053421;28;20017;-68
2023/04/08 09:22:06;;;;;;;2.10;0.40;;;16.90;76.50;;;;;;5053559;28;20028;-67
2023/04/08 09:24:32;;;;;;;0.80;0.40;;;16.90;76.60;;;;;;5053520;28;20017;-67
2023/04/08 09:26:58;;;;;;;1.10;0.45;;;16.90;76.70;;;;;;5052240;28;20147;-67
2023/04/08 09:29:25;;;;;;;3.78;0.60;;;16.90;76.70;;;;;;5051682;28;20021;-67
2023/04/08 09:31:55;;;;;;;3.65;0.40;;;16.90;76.70;;;;;;5052146;28;20025;-68
2023/04/08 09:34:22;;;;;;;1.45;0.60;;;16.90;76.70;;;;;;5035442;28;20471;-67
2023/04/08 09:36:48;;;;;;;3.33;0.60;;;16.90;76.70;;;;;;5053245;28;20021;-67
2023/04/08 09:39:14;;;;;;;0.38;0.38;;;16.90;76.70;;;;;;5051841;28;20086;-67
2023/04/08 09:41:40;;;;;;;0.47;0.38;;;16.90;76.70;;;;;;5051723;28;20036;-67
2023/04/08 09:44:11;;;;;;;1.55;0.50;;;16.90;76.60;;;;;;5034870;28;20026;-67
2023/04/08 09:46:49;;;;;;;1.45;0.50;;;16.90;76.60;;;;;;5032172;28;20029;-67
2023/04/08 09:49:36;;;;;;;1.55;0.68;;;17.00;76.60;;;;;;5029546;28;20391;-67
2023/04/08 09:52:05;;;;;;;3.00;0.80;;;17.00;72.10;;;;;;5031949;28;20021;-66
2023/04/08 09:54:56;;;;;;;1.75;0.95;;;16.90;69.70;;;;;;5034858;28;20037;-66
2023/04/08 09:57:44;;;;;;;2.22;1.10;;;16.80;67.50;;;;;;5038133;28;20063;-70
2023/04/08 10:00:14;;;;;;;1.60;1.17;;;16.80;66.00;;;;;;5035249;28;20030;-72
2023/04/08 10:03:18;;;;;;;2.88;1.60;;;16.80;65.00;;;;;;5038954;28;20091;-70
2023/04/08 10:05:43;;;;;;;3.60;1.25;;;16.80;65.40;;;;;;5037870;28;20040;-71
2023/04/08 10:08:09;;;;;;;2.58;1.40;;;16.90;62.80;;;;;;5034128;28;20037;-71
2023/04/08 10:10:38;;;;;;;3.80;1.23;;;16.90;63.10;;;;;;5049512;28;20028;-72
2023/04/08 10:13:04;;;;;;;3.88;1.48;;;16.90;61.90;;;;;;5051522;28;20094;-72
2023/04/08 10:15:39;;;;;;;3.17;1.10;;;17.00;62.50;;;;;;5049920;28;20418;-72
2023/04/08 10:18:08;;;;;;;1.85;0.63;;;17.00;62.40;;;;;;5039898;28;20021;-72
2023/04/08 10:20:33;;;;;;;3.55;1.25;;;17.10;61.20;;;;;;5053680;28;20075;-72
2023/04/08 10:23:02;;;;;;;3.08;1.00;;;17.20;60.50;;;;;;5054555;28;20029;-72
2023/04/08 10:25:30;;;;;;;2.22;1.05;;;17.10;60.40;;;;;;5053129;28;20024;-72
2023/04/08 10:27:56;;;;;;;1.55;0.93;;;17.20;61.00;;;;;;5052839;28;20028;-72
2023/04/08 10:30:27;;;;;;;3.13;1.05;;;17.20;59.80;;;;;;5053126;28;20031;-72
2023/04/08 10:32:58;;;;;;;1.90;0.97;;;17.20;59.70;;;;;;5054466;28;20071;-72
2023/04/08 10:35:31;;;;;;;2.30;1.10;;;17.30;58.70;;;;;;5040750;28;20025;-72
2023/04/08 10:37:58;;;;;;;2.35;0.98;;;17.30;59.30;;;;;;5016916;28;20028;-72
2023/04/08 10:40:23;;;;;;;3.13;1.08;;;17.30;59.20;;;;;;5032948;28;20109;-72
2023/04/08 10:42:56;;;;;;;1.45;1.00;;;17.30;58.40;;;;;;5032827;28;20100;-72
2023/04/08 10:45:22;;;;;;;3.35;1.60;;;17.30;58.00;;;;;;5033996;28;20084;-72
2023/04/08 10:47:47;;;;;;;2.70;1.20;;;17.30;58.20;;;;;;5016534;28;20025;-72
2023/04/08 10:50:14;;;;;;;2.25;1.10;;;17.30;57.30;;;;;;5034258;28;20038;-72
2023/04/08 10:52:50;;;;;;;2.20;1.20;;;17.40;58.10;;;;;;5016192;28;20025;-71
2023/04/08 10:55:23;;;;;;;2.10;1.27;;;17.40;58.20;;;;;;5031531;28;20025;-70
2023/04/08 10:57:50;;;;;;;2.78;1.17;;;17.40;57.40;;;;;;5050500;28;20448;-71
2023/04/08 11:00:27;;;;;;;3.00;1.05;;;17.50;58.90;;;;;;5036144;28;20032;-70
2023/04/08 11:02:53;;;;;;;1.27;1.17;;;17.60;58.60;;;;;;5004620;28;20396;-70
2023/04/08 11:05:21;;;;;;;1.50;0.93;;;17.60;59.10;;;;;;5033601;28;20026;-71
2023/04/08 11:07:47;;;;;;;1.20;0.98;;;17.60;59.70;;;;;;5028857;28;20017;-70
2023/04/08 11:10:12;;;;;;;1.45;0.95;;;17.60;58.40;;;;;;5035873;28;20079;-70
2023/04/08 11:12:38;;;;;;;4.03;1.33;;;17.70;59.50;;;;;;5039944;28;20365;-71
2023/04/08 11:15:04;;;;;;;2.58;1.00;;;17.70;58.70;;;;;;5051593;28;20032;-71
2023/04/08 11:17:31;;;;;;;1.73;1.10;;;17.70;58.40;;;;;;5053347;28;20025;-70
2023/04/08 11:20:01;;;;;;;1.77;1.00;;;17.80;57.20;;;;;;5052254;28;20028;-71
2023/04/08 11:22:27;;;;;;;2.83;1.20;;;17.90;58.80;;;;;;5036299;28;20024;-71
2023/04/08 11:24:52;;;;;;;2.65;1.20;;;17.80;57.30;;;;;;5035457;28;20025;-72
2023/04/08 11:27:18;;;;;;;1.35;0.95;;;17.90;57.80;;;;;;5051998;28;20506;-72
2023/04/08 11:29:44;;;;;;;2.20;1.05;;;17.90;57.20;;;;;;5053176;28;20032;-72
2023/04/08 11:32:09;;;;;;;2.15;1.02;;;17.90;57.80;;;;;;5051925;28;20027;-72
2023/04/08 11:34:38;;;;;;;1.73;1.13;;;18.00;58.30;;;;;;5051836;28;20036;-71
2023/04/08 11:37:03;;;;;;;3.78;0.88;;;17.90;57.30;;;;;;5053239;28;20025;-71
2023/04/08 11:39:29;;;;;;;1.80;1.30;;;17.90;57.70;;;;;;5052925;28;20032;-71
2023/04/08 11:41:56;;;;;;;1.13;0.80;;;18.00;57.50;;;;;;5053109;28;20053;-71
2023/04/08 11:44:30;;;;;;;1.70;0.90;;;18.00;58.10;;;;;;5051882;28;20075;-71
2023/04/08 11:46:56;;;;;;;1.08;0.80;;;18.00;58.40;;;;;;5035451;28;20502;-72
2023/04/08 11:49:21;;;;;;;2.97;1.20;;;18.10;57.80;;;;;;5051764;28;20037;-72
2023/04/08 11:51:57;;;;;;;1.65;0.93;;;18.00;56.90;;;;;;5051644;28;20032;-71
2023/04/08 11:54:31;;;;;;;3.25;1.10;;;18.10;56.80;;;;;;5052453;28;20060;-71
2023/04/08 11:56:58;;;;;;;2.05;1.02;;;18.10;56.50;;;;;;5053016;28;20021;-71
2023/04/08 11:59:26;;;;;;;1.55;1.00;;;18.10;57.30;;;;;;5053049;28;20031;-71
2023/04/08 12:01:52;;;;;;;1.45;0.90;;;18.10;57.50;;;;;;5027621;28;20052;-71
2023/04/08 12:04:17;;;;;;;1.80;1.17;;;18.20;57.40;;;;;;5031873;28;20034;-72
2023/04/08 12:06:45;;;;;;;1.42;0.90;;;18.20;56.10;;;;;;5035453;28;20036;-71
2023/04/08 12:09:12;;;;;;;1.40;0.95;;;18.20;56.40;;;;;;5043122;28;20538;-71
2023/04/08 12:11:37;;;;;;;0.80;0.80;;;18.20;56.50;;;;;;5032838;28;20377;-71
2023/04/08 12:14:03;;;;;;;1.25;0.70;;;18.20;57.20;;;;;;5032767;28;20040;-71
2023/04/08 12:16:29;;;;;;;0.73;0.73;;;18.30;57.50;;;;;;5032816;28;20503;-71
2023/04/08 12:18:54;;;;;;;3.45;1.10;;;18.30;56.80;;;;;;5031524;28;20029;-71
2023/04/08 12:21:20;;;;;;;1.77;0.90;;;18.30;55.90;;;;;;5032869;28;20021;-71
2023/04/08 12:23:46;;;;;;;2.83;1.02;;;18.30;55.50;;;;;;5031311;28;20033;-72
2023/04/08 12:26:12;;;;;;;1.77;0.90;;;18.30;55.20;;;;;;5033067;28;20498;-72
2023/04/08 12:28:37;;;;;;;2.70;1.10;;;18.40;55.70;;;;;;5033379;28;20025;-72
2023/04/08 12:31:03;;;;;;;2.33;0.85;;;18.40;55.60;;;;;;5040772;28;20030;-65
2023/04/08 12:33:29;;;;;;;1.85;0.90;;;18.30;55.50;;;;;;5039953;28;20013;-65
2023/04/08 12:35:56;;;;;;;3.35;1.23;;;18.30;56.40;;;;;;5049182;28;20017;-66
2023/04/08 12:38:22;;;;;;;1.45;0.73;;;18.20;56.90;;;;;;5049196;28;20010;-66
2023/04/08 12:40:48;;;;;;;2.25;0.80;;;18.20;57.80;;;;;;5050454;28;20040;-66
2023/04/08 12:43:13;;;;;;;2.50;1.02;;;18.20;58.50;;;;;;5050238;28;20025;-66
2023/04/08 12:45:39;;;;;;;2.05;0.73;;;18.20;59.10;;;;;;5050516;28;20398;-66